createdAt,value
2023-05-17T00:02:46.809Z,10.16
2023-05-17T00:07:39.493Z,10.22
2023-05-17T00:12:29.682Z,10.24
2023-05-17T00:17:19.769Z,10.21
2023-05-17T00:22:10.011Z,10.24
2023-05-17T00:27:02.669Z,10.14
2023-05-17T00:31:52.766Z,10.29
2023-05-17T00:36:42.733Z,10.39
2023-05-17T00:41:32.968Z,10.43
2023-05-17T00:46:26.212Z,10.40
2023-05-17T00:51:17.665Z,10.38
2023-05-17T00:56:08.874Z,10.50
2023-05-17T01:00:59.111Z,10.46
2023-05-17T01:05:52.159Z,10.45
2023-05-17T01:10:53.160Z,10.37
2023-05-17T01:15:49.774Z,10.32
2023-05-17T01:20:42.204Z,9.99
2023-05-17T01:25:53.261Z,10.27
2023-05-17T01:30:48.217Z,10.33
2023-05-17T01:35:39.999Z,10.28
2023-05-17T01:40:30.379Z,10.27
2023-05-17T01:45:27.381Z,10.26
2023-05-17T01:50:25.935Z,10.25
2023-05-17T01:55:21.307Z,10.25
2023-05-17T02:00:12.683Z,10.26
2023-05-17T02:05:05.179Z,10.29
2023-05-17T02:09:57.744Z,10.30
2023-05-17T02:14:47.657Z,10.30
2023-05-17T02:19:40.054Z,10.24
2023-05-17T02:24:30.858Z,10.28
2023-05-17T02:29:23.046Z,10.28
2023-05-17T02:34:13.032Z,10.17
2023-05-17T02:39:02.986Z,10.24
2023-05-17T02:43:52.892Z,10.13
2023-05-17T02:48:45.369Z,10.25
2023-05-17T02:53:35.037Z,10.25
2023-05-17T02:58:26.730Z,10.17
2023-05-17T03:03:17.056Z,10.23
2023-05-17T03:08:09.878Z,10.11
2023-05-17T03:12:59.884Z,10.19
2023-05-17T03:17:54.507Z,10.26
2023-05-17T03:22:44.505Z,10.28
2023-05-17T03:27:37.203Z,10.25
2023-05-17T03:32:28.103Z,10.28
2023-05-17T03:37:18.122Z,10.49
2023-05-17T03:42:09.787Z,10.51
2023-05-17T03:47:02.540Z,10.46
2023-05-17T03:51:52.579Z,10.45
2023-05-17T03:56:47.203Z,10.40
2023-05-17T04:01:38.114Z,10.45
2023-05-17T04:06:31.415Z,10.44
2023-05-17T04:11:27.921Z,10.31
2023-05-17T04:16:19.207Z,10.17
2023-05-17T04:21:15.193Z,10.13
2023-05-17T04:26:45.732Z,10.13
2023-05-17T04:31:57.581Z,10.13
2023-05-17T04:36:47.426Z,10.18
2023-05-17T04:41:45.664Z,10.27
2023-05-17T04:46:39.536Z,10.34
2023-05-17T04:51:32.068Z,10.40
2023-05-17T04:56:21.889Z,10.44
2023-05-17T05:01:15.158Z,10.49
2023-05-17T05:06:04.987Z,10.49
2023-05-17T05:10:55.344Z,10.47
2023-05-17T05:16:29.674Z,10.52
2023-05-17T05:21:19.876Z,10.49
2023-05-17T05:26:17.129Z,10.32
2023-05-17T05:31:07.402Z,10.52
2023-05-17T05:36:08.433Z,10.83
2023-05-17T05:40:58.490Z,10.93
2023-05-17T05:45:48.743Z,10.72
2023-05-17T05:50:38.973Z,10.77
2023-05-17T05:55:35.780Z,10.83
2023-05-17T06:00:28.618Z,10.90
2023-05-17T06:05:18.735Z,10.84
2023-05-17T06:10:10.015Z,10.93
2023-05-17T06:15:02.544Z,10.84
2023-05-17T06:19:52.876Z,10.94
2023-05-17T06:24:42.864Z,11.01
2023-05-17T06:29:32.806Z,11.07
2023-05-17T06:34:25.420Z,11.12
2023-05-17T06:39:15.468Z,11.25
2023-05-17T06:44:05.379Z,11.28
2023-05-17T06:48:55.350Z,11.46
2023-05-17T06:53:47.931Z,11.74
2023-05-17T06:58:38.447Z,11.84
2023-05-17T07:03:29.120Z,11.87
2023-05-17T07:08:19.295Z,11.98
2023-05-17T07:13:11.537Z,11.51
2023-05-17T07:18:01.551Z,11.40
2023-05-17T07:22:51.352Z,11.28
2023-05-17T07:27:41.070Z,11.28
2023-05-17T07:32:33.674Z,11.42
2023-05-17T07:37:23.694Z,11.40
2023-05-17T07:42:13.584Z,11.46
2023-05-17T07:47:03.583Z,11.62
2023-05-17T07:51:56.551Z,11.55
2023-05-17T07:56:46.347Z,11.86
2023-05-17T08:01:36.070Z,12.25
2023-05-17T08:06:25.855Z,12.76
2023-05-17T08:11:18.781Z,13.50
2023-05-17T08:16:14.171Z,16.12
2023-05-17T08:21:04.981Z,14.87
2023-05-17T08:25:54.639Z,15.09
2023-05-17T08:30:47.118Z,15.91
2023-05-17T08:35:37.202Z,16.46
2023-05-17T08:40:27.922Z,16.74
2023-05-17T08:45:19.132Z,16.50
2023-05-17T08:50:13.080Z,17.24
2023-05-17T08:55:07.710Z,17.72
2023-05-17T08:59:58.253Z,18.17
2023-05-17T09:04:48.005Z,17.75
2023-05-17T09:09:40.697Z,18.29
2023-05-17T09:14:36.539Z,18.37
2023-05-17T09:19:26.613Z,18.23
2023-05-17T09:24:16.978Z,18.16
2023-05-17T09:29:11.285Z,18.64
2023-05-17T09:34:02.530Z,19.11
2023-05-17T09:38:56.720Z,19.18
2023-05-17T09:43:46.682Z,19.31
2023-05-17T09:48:44.259Z,19.45
2023-05-17T09:53:38.573Z,19.52
2023-05-17T09:58:29.259Z,19.20
2023-05-17T10:03:19.251Z,18.86
2023-05-17T10:08:13.623Z,19.93
2023-05-17T10:13:04.758Z,18.95
2023-05-17T10:17:55.222Z,18.73
2023-05-17T10:22:46.545Z,18.78
2023-05-17T10:27:39.357Z,18.77
2023-05-17T10:32:31.978Z,18.72
2023-05-17T10:37:24.418Z,18.86
2023-05-17T10:42:17.432Z,18.56
2023-05-17T10:47:11.454Z,18.74
2023-05-17T10:52:01.738Z,18.56
2023-05-17T10:56:52.470Z,18.06
2023-05-17T11:01:53.283Z,18.10
2023-05-17T11:06:46.444Z,18.37
2023-05-17T11:11:36.951Z,18.30
2023-05-17T11:16:31.079Z,18.30
2023-05-17T11:21:22.749Z,18.29
2023-05-17T11:26:20.562Z,18.38
2023-05-17T11:31:11.600Z,18.68
2023-05-17T11:36:08.441Z,18.48
2023-05-17T11:41:01.471Z,18.35
2023-05-17T11:45:57.610Z,18.31
2023-05-17T11:50:49.381Z,18.47
2023-05-17T11:55:41.934Z,18.33
2023-05-17T12:00:31.856Z,18.17
2023-05-17T12:05:26.465Z,17.83
2023-05-17T12:10:17.020Z,17.76
2023-05-17T12:15:07.686Z,17.53
2023-05-17T12:19:57.871Z,17.53
2023-05-17T12:24:50.389Z,17.46
2023-05-17T12:29:40.891Z,17.52
2023-05-17T12:34:34.377Z,17.57
2023-05-17T12:39:26.250Z,17.67
2023-05-17T12:44:18.730Z,17.66
2023-05-17T12:49:11.343Z,17.90
2023-05-17T12:54:02.257Z,17.78
2023-05-17T12:59:07.856Z,17.65
2023-05-17T13:04:00.509Z,17.74
2023-05-17T13:09:01.564Z,17.78
2023-05-17T13:13:51.427Z,17.72
2023-05-17T13:18:51.817Z,17.46
2023-05-17T13:23:50.887Z,17.52
2023-05-17T13:28:44.754Z,17.96
2023-05-17T13:33:34.930Z,18.11
2023-05-17T13:38:24.816Z,18.04
2023-05-17T13:43:17.385Z,18.05
2023-05-17T13:48:07.840Z,17.83
2023-05-17T13:52:57.880Z,17.53
2023-05-17T13:57:48.588Z,17.54
2023-05-17T14:02:41.586Z,17.56
2023-05-17T14:07:31.699Z,17.58
2023-05-17T14:12:21.550Z,17.39
2023-05-17T14:17:13.719Z,17.35
2023-05-17T14:22:06.357Z,17.47
2023-05-17T14:26:58.053Z,17.44
2023-05-17T14:31:48.055Z,17.67
2023-05-17T14:36:38.582Z,17.47
2023-05-17T14:41:31.144Z,17.41
2023-05-17T14:46:21.299Z,17.19
2023-05-17T14:51:13.374Z,17.30
2023-05-17T14:56:03.585Z,17.32
2023-05-17T15:01:05.087Z,17.32
2023-05-17T15:06:00.000Z,17.11
2023-05-17T15:10:49.849Z,16.96
2023-05-17T15:15:40.694Z,16.83
2023-05-17T15:20:33.272Z,16.78
2023-05-17T15:25:23.660Z,16.69
2023-05-17T15:30:14.868Z,16.50
2023-05-17T15:35:05.815Z,16.40
2023-05-17T15:39:58.676Z,16.30
2023-05-17T15:44:48.592Z,16.29
2023-05-17T15:49:39.426Z,16.46
2023-05-17T15:54:29.573Z,16.40
2023-05-17T15:59:22.484Z,16.19
2023-05-17T16:04:12.524Z,16.09
2023-05-17T16:09:02.321Z,16.03
2023-05-17T16:13:57.520Z,15.89
2023-05-17T16:18:50.582Z,15.78
2023-05-17T16:23:42.921Z,15.81
2023-05-17T16:28:33.115Z,15.64
2023-05-17T16:33:23.299Z,15.63
2023-05-17T16:38:16.328Z,15.61
2023-05-17T16:43:06.993Z,15.64
2023-05-17T16:47:56.913Z,15.62
2023-05-17T16:52:46.904Z,15.44
2023-05-17T16:57:42.177Z,15.25
2023-05-17T17:02:32.264Z,15.01
2023-05-17T17:07:22.314Z,14.75
2023-05-17T17:12:23.586Z,14.74
2023-05-17T17:17:17.348Z,14.65
2023-05-17T17:22:08.549Z,14.63
2023-05-17T17:26:58.643Z,14.80
2023-05-17T17:31:48.521Z,14.69
2023-05-17T17:36:40.921Z,14.60
2023-05-17T17:41:32.839Z,14.48
2023-05-17T17:46:24.719Z,14.40
2023-05-17T17:57:39.488Z,14.19
2023-05-17T18:02:37.445Z,14.14
2023-05-17T18:07:49.011Z,14.07
2023-05-17T18:29:04.242Z,14.05
2023-05-17T18:33:56.377Z,13.88
2023-05-17T18:38:47.186Z,13.70
2023-05-17T18:48:48.295Z,13.44
2023-05-17T18:53:41.696Z,13.19
2023-05-17T18:58:45.647Z,13.02
2023-05-17T19:03:40.520Z,12.80
2023-05-17T19:08:34.723Z,12.66
2023-05-17T19:13:24.718Z,12.58
2023-05-17T19:18:16.872Z,12.40
2023-05-17T19:23:07.060Z,12.62
2023-05-17T19:27:59.624Z,12.29
2023-05-17T19:32:50.708Z,12.16
2023-05-17T19:37:40.661Z,11.98
2023-05-17T19:42:30.780Z,11.88
2023-05-17T19:47:25.266Z,11.82
2023-05-17T19:52:15.402Z,11.71
2023-05-17T19:57:05.422Z,11.83
2023-05-17T20:01:57.687Z,11.70
2023-05-17T20:06:50.410Z,11.77
2023-05-17T20:11:41.016Z,11.72
2023-05-17T20:16:31.163Z,11.73
2023-05-17T20:21:23.052Z,11.65
2023-05-17T20:26:17.189Z,11.53
2023-05-17T20:31:07.310Z,11.50
2023-05-17T20:35:58.095Z,11.46
2023-05-17T20:40:48.282Z,11.24
2023-05-17T20:45:42.668Z,11.19
2023-05-17T20:50:32.571Z,11.23
2023-05-17T20:55:22.521Z,11.26
2023-05-17T21:00:16.991Z,11.19
2023-05-17T21:05:11.042Z,11.03
2023-05-17T21:10:01.358Z,11.04
2023-05-17T21:15:04.196Z,10.87
2023-05-17T21:20:01.103Z,10.96
2023-05-17T21:24:56.277Z,10.91
2023-05-17T21:29:46.178Z,10.74
2023-05-17T21:34:38.623Z,10.77
2023-05-17T21:39:28.588Z,10.72
2023-05-17T21:44:21.146Z,10.67
2023-05-17T21:49:11.028Z,10.59
2023-05-17T21:54:00.880Z,10.53
2023-05-17T21:58:52.343Z,10.57
2023-05-17T22:03:47.677Z,10.52
2023-05-17T22:08:37.568Z,10.41
2023-05-17T22:13:27.705Z,10.40
2023-05-17T22:18:19.646Z,10.29
2023-05-17T22:23:12.388Z,10.24
2023-05-17T22:28:02.368Z,10.10
2023-05-17T22:32:54.878Z,10.08
2023-05-17T22:37:45.602Z,10.04
2023-05-17T22:42:38.291Z,9.82
2023-05-17T22:47:28.282Z,9.71
2023-05-17T22:52:18.910Z,9.65
2023-05-17T22:57:09.769Z,9.65
2023-05-17T23:02:02.413Z,9.58
2023-05-17T23:06:52.366Z,9.54
2023-05-17T23:11:42.245Z,9.46
2023-05-17T23:16:32.331Z,9.40
2023-05-17T23:21:24.893Z,9.36
2023-05-17T23:26:14.881Z,9.29
2023-05-17T23:31:05.996Z,9.25
2023-05-17T23:35:56.952Z,9.29
2023-05-17T23:40:49.493Z,9.22
2023-05-17T23:45:39.600Z,9.15
2023-05-17T23:50:32.625Z,9.10
2023-05-17T23:55:25.466Z,8.54
